High Tide — D5AA7 — position and weather

sailwx.info

Track history (hours):
 
Tides and Currents Weather Stations Pressure Air Temp Water Temp Dewpoint Dewpoint Depression Visibility Wind Speed Wind Dir Waves Ship Positions

High Tide

Last reported at 2016-Aug-24 10:08 UTC. Time now 2016-Aug-30 07:21 UTC.
Position N 01°11' E 103°39'.

Length 183 m; draft 10.2 m.

Type: Tanker. MMSI: 636015337.

Date/timePositionNaut miles runAvg speedWind from/ knotsBaromVisibWave heightAir tempDewpointWater temp
2016-Aug-24 10:08N 01°11' E 103°39'711.1
2016-Aug-24 09:32N 01°09' E 103°46'5 5.3
2016-Aug-24 08:33N 01°13' E 103°48'0 0.2
2016-Aug-24 07:30N 01°13' E 103°49'0 0.0
2016-Aug-24 06:33N 01°13' E 103°49'0 0.1
2016-Aug-24 04:33N 01°13' E 103°49'0 0.1
2016-Aug-24 02:30N 01°13' E 103°49'0 0.0
2016-Aug-24 01:21N 01°13' E 103°49'0 0.0
2016-Aug-24 00:30N 01°13' E 103°49'0 0.0
2016-Aug-23 20:30N 01°13' E 103°49'0 0.1
2016-Aug-23 19:33N 01°13' E 103°49'6 6.2
2016-Aug-23 18:33N 01°14' E 103°42'1 0.0
2016-Aug-23 04:33N 01°15' E 103°43'6 6.1
2016-Aug-23 03:32N 01°13' E 103°49'0 0.1
2016-Aug-23 02:08N 01°13' E 103°49'0 0.1
2016-Aug-23 01:29N 01°13' E 103°49'5 5.7
2016-Aug-23 00:33N 01°14' E 103°54'7 6.9
2016-Aug-22 23:33N 01°16' E 104°00'5 4.6
2016-Aug-22 22:32N 01°17' E 104°05'  
2016-Aug-15 04:33N 31°22' E 121°36'2 2.2
2016-Aug-15 03:29N 31°23' E 121°34'0 0.0
2016-Aug-15 02:29N 31°23' E 121°34'0 0.0
2016-Aug-15 01:23N 31°23' E 121°34'0 0.0
2016-Aug-15 00:29N 31°23' E 121°34'0 0.0
2016-Aug-14 23:11N 31°23' E 121°34'0 0.0
2016-Aug-14 22:29N 31°23' E 121°34'0 0.0
2016-Aug-14 21:29N 31°23' E 121°34'0 0.0
2016-Aug-14 20:29N 31°23' E 121°34'0 0.0
2016-Aug-14 19:23N 31°23' E 121°34'0 0.0
2016-Aug-14 18:29N 31°23' E 121°34'0 0.0
2016-Aug-14 17:11N 31°23' E 121°34'0 0.0
2016-Aug-14 16:29N 31°23' E 121°34'0 0.0
2016-Aug-14 15:23N 31°23' E 121°34'0 0.0
2016-Aug-14 14:29N 31°23' E 121°34'0 0.0
2016-Aug-14 13:29N 31°23' E 121°34'0 0.0
2016-Aug-14 12:17N 31°23' E 121°34'0 0.0
2016-Aug-14 11:29N 31°23' E 121°34'0 0.0
2016-Aug-14 10:17N 31°23' E 121°34'  
Track history (hours):
 
Tides and Currents Weather Stations Pressure Air Temp Water Temp Dewpoint Dewpoint Depression Visibility Wind Speed Wind Dir Waves Ship Positions

High Tide

Last reported at 2016-Aug-24 10:08 UTC. Time now 2016-Aug-30 07:21 UTC.
Position N 01°11' E 103°39'.

Length 183 m; draft 10.2 m.

Type: Tanker. MMSI: 636015337.

Date/timePositionNaut miles runAvg speedWind from/ knotsBaromVisibWave heightAir tempDewpointWater temp
2016-Aug-24 10:08N 01°11' E 103°39'711.1
2016-Aug-24 09:32N 01°09' E 103°46'5 5.3
2016-Aug-24 08:33N 01°13' E 103°48'0 0.2
2016-Aug-24 07:30N 01°13' E 103°49'0 0.0
2016-Aug-24 06:33N 01°13' E 103°49'0 0.1
2016-Aug-24 04:33N 01°13' E 103°49'0 0.1
2016-Aug-24 02:30N 01°13' E 103°49'0 0.0
2016-Aug-24 01:21N 01°13' E 103°49'0 0.0
2016-Aug-24 00:30N 01°13' E 103°49'0 0.0
2016-Aug-23 20:30N 01°13' E 103°49'0 0.1
2016-Aug-23 19:33N 01°13' E 103°49'6 6.2
2016-Aug-23 18:33N 01°14' E 103°42'1 0.0
2016-Aug-23 04:33N 01°15' E 103°43'6 6.1
2016-Aug-23 03:32N 01°13' E 103°49'0 0.1
2016-Aug-23 02:08N 01°13' E 103°49'0 0.1
2016-Aug-23 01:29N 01°13' E 103°49'5 5.7
2016-Aug-23 00:33N 01°14' E 103°54'7 6.9
2016-Aug-22 23:33N 01°16' E 104°00'5 4.6
2016-Aug-22 22:32N 01°17' E 104°05'  
2016-Aug-15 04:33N 31°22' E 121°36'2 2.2
2016-Aug-15 03:29N 31°23' E 121°34'0 0.0
2016-Aug-15 02:29N 31°23' E 121°34'0 0.0
2016-Aug-15 01:23N 31°23' E 121°34'0 0.0
2016-Aug-15 00:29N 31°23' E 121°34'0 0.0
2016-Aug-14 23:11N 31°23' E 121°34'0 0.0
2016-Aug-14 22:29N 31°23' E 121°34'0 0.0
2016-Aug-14 21:29N 31°23' E 121°34'0 0.0
2016-Aug-14 20:29N 31°23' E 121°34'0 0.0
2016-Aug-14 19:23N 31°23' E 121°34'0 0.0
2016-Aug-14 18:29N 31°23' E 121°34'0 0.0
2016-Aug-14 17:11N 31°23' E 121°34'0 0.0
2016-Aug-14 16:29N 31°23' E 121°34'0 0.0
2016-Aug-14 15:23N 31°23' E 121°34'0 0.0
2016-Aug-14 14:29N 31°23' E 121°34'0 0.0
2016-Aug-14 13:29N 31°23' E 121°34'0 0.0
2016-Aug-14 12:17N 31°23' E 121°34'0 0.0
2016-Aug-14 11:29N 31°23' E 121°34'0 0.0
2016-Aug-14 10:17N 31°23' E 121°34'  

Dump ship's entire track history